Latest Weather Observations for Warburton

IDW60801

Issued at 11:05 am WST Saturday 25 October 2014 (issued every 30 minutes, with the page automatically refreshed every 10 minutes)

About weather observations | Map of weather stations | Latest weather observations for WA | Other Formats
Station Details ID: 013011 Name: WARBURTON AIRFIELD Lat: -26.13 Lon: 126.58 Height: 459.0 m
Data from the previous 72 hours. | See also: Recent months at Warburton
Date/Time
WST
Temp
°C
App
Temp
°C
Dew
Point
Rel
Hum
%
Delta-T
°C
Wind Press
QNH
hPa
Press
MSL
hPa
Rain
since 9 am
mm
Dir
 
Spd
km/h
Gust
km/h
Spd
kts
Gust
kts
25/11:00am 39.6 33.6 0.9 9 20.3 N 22 33 12 18 1015.2 - 0.0
25/10:30am 37.3 32.2 0.6 10 18.9 N 17 30 9 16 1015.7 - 0.0
25/10:00am 37.9 32.8 1.0 10 19.2 NNE 17 26 9 14 1016.1 - 0.0
25/09:30am 36.0 30.8 3.3 13 17.5 N 20 26 11 14 1016.6 - 0.0
25/09:00am 36.3 32.2 4.6 14 17.3 NE 15 26 8 14 1017.1 1014.6 0.0
25/08:30am 35.1 31.0 4.6 15 16.5 ENE 15 24 8 13 1017.5 - 0.0
25/08:00am 34.6 31.4 5.1 16 16.1 ENE 11 20 6 11 1017.6 - 0.0
25/07:30am 33.3 30.3 5.8 18 15.1 E 11 15 6 8 1017.7 - 0.0
25/07:00am 31.1 28.1 7.5 23 13.1 ESE 13 17 7 9 1017.5 - 0.0
25/06:30am 28.4 25.8 7.6 27 11.4 ESE 11 17 6 9 1017.6 - 0.0
25/06:00am 25.9 25.2 7.0 30 10.1 CALM 0 6 0 3 1017.5 1015.0 0.0
25/05:30am 24.5 22.4 6.7 32 9.4 ENE 7 7 4 4 1017.1 - 0.0
25/05:00am 25.4 23.4 7.1 31 9.8 SE 7 9 4 5 1016.6 - 0.0
25/04:30am 27.0 24.0 7.5 29 10.6 SSW 13 19 7 10 1016.7 - 0.0
25/04:00am 27.3 24.6 7.2 28 10.9 SSE 11 17 6 9 1016.4 - 0.0
25/03:30am 28.1 23.2 6.8 26 11.5 SSE 22 30 12 16 1016.0 - 0.0
25/03:00am 28.4 26.0 7.1 26 11.6 S 9 20 5 11 1016.0 1013.6 0.0
25/02:30am 29.0 24.5 7.0 25 12.0 ENE 20 30 11 16 1014.9 - 0.0
25/02:00am 29.4 24.1 6.7 24 12.4 ENE 24 35 13 19 1014.6 - 0.0
25/01:30am 29.4 25.0 6.7 24 12.4 ENE 19 32 10 17 1015.0 - 0.0
25/01:00am 29.7 24.1 7.0 24 12.4 E 26 39 14 21 1014.9 - 0.0
25/12:30am 30.0 25.0 6.6 23 12.8 E 22 33 12 18 1014.9 - 0.0
25/12:00am 30.4 24.6 6.3 22 13.1 E 26 35 14 19 1015.3 1012.8 0.0
 
Date/Time
WST
Temp
°C
App
Temp
°C
Dew
Point
Rel
Hum
%
Delta-T
°C
Wind Press
QNH
hPa
Press
MSL
hPa
Rain
since 9 am
mm
Dir
 
Spd
km/h
Gust
km/h
Spd
kts
Gust
kts
24/11:30pm 31.2 25.0 6.3 21 13.6 E 28 43 15 23 1015.5 - 0.0
24/11:27pm 31.3 25.0 5.7 20 13.9 E 28 43 15 23 1015.6 - 0.0
24/11:00pm 31.6 27.9 4.4 18 14.4 E 13 17 7 9 1015.3 - 0.0
24/10:30pm 31.5 27.5 5.1 19 14.2 ESE 15 20 8 11 1015.5 - 0.0
24/10:00pm 31.6 29.8 5.2 19 14.2 WSW 4 7 2 4 1015.9 - 0.0
24/09:30pm 32.3 29.1 5.0 18 14.7 ESE 11 15 6 8 1015.8 - 0.0
24/09:00pm 32.7 28.8 5.3 18 14.8 ESE 15 20 8 11 1015.8 1013.3 0.0
24/08:30pm 33.4 28.3 4.2 16 15.6 SE 20 30 11 16 1015.6 - 0.0
24/08:00pm 33.9 28.5 4.6 16 15.8 E 22 33 12 18 1016.0 - 0.0
24/07:30pm 33.6 30.3 4.3 16 15.7 SSE 11 19 6 10 1015.5 - 0.0
24/07:00pm 34.1 28.4 4.7 16 15.9 SW 24 37 13 20 1014.7 - 0.0
24/06:30pm 33.3 30.7 1.2 13 16.3 N 4 6 2 3 1013.5 - 0.0
24/06:00pm 34.7 31.2 1.1 12 17.2 N 9 11 5 6 1013.0 1010.5 0.0
24/05:30pm 36.2 31.5 1.1 11 18.1 N 15 20 8 11 1012.7 - 0.0
24/05:00pm 36.8 32.0 0.2 10 18.7 NNE 15 20 8 11 1012.5 - 0.0
24/04:30pm 38.0 32.6 1.1 10 19.3 NNE 19 32 10 17 1012.3 - 0.0
24/04:00pm 37.9 32.3 1.0 10 19.2 N 20 30 11 16 1012.1 - 0.0
24/03:30pm 38.6 34.4 1.6 10 19.5 NNW 13 20 7 11 1012.3 - 0.0
24/03:00pm 38.6 34.0 1.6 10 19.5 N 15 26 8 14 1012.5 1010.0 0.0
24/02:30pm 39.2 34.5 0.6 9 20.1 NW 15 20 8 11 1012.8 - 0.0
24/02:00pm 38.3 34.8 1.3 10 19.4 NNW 9 22 5 12 1013.1 - 0.0
24/01:30pm 38.3 31.2 1.3 10 19.4 NW 28 37 15 20 1013.6 - 0.0
24/01:00pm 37.8 32.4 1.0 10 19.2 N 19 32 10 17 1013.9 - 0.0
24/12:30pm 39.0 33.7 1.9 10 19.7 NE 19 39 10 21 1014.2 - 0.0
24/12:00pm 38.1 31.4 1.2 10 19.3 NW 26 35 14 19 1014.7 1012.2 0.0
24/11:30am 38.9 33.6 1.8 10 19.7 N 19 32 10 17 1015.0 - 0.0
24/11:00am 37.4 32.7 3.2 12 18.4 NW 17 26 9 14 1015.4 - 0.0
24/10:30am 37.2 32.1 3.1 12 18.3 NNW 19 26 10 14 1015.8 - 0.0
24/10:00am 36.3 32.4 3.5 13 17.6 WNW 13 20 7 11 1016.2 - 0.0
24/09:30am 34.9 32.5 4.4 15 16.5 WNW 6 13 3 7 1016.5 - 0.0
24/09:00am 33.9 31.9 4.6 16 15.8 SW 4 7 2 4 1016.7 1014.3 0.0
24/08:30am 32.1 29.6 4.8 18 14.6 W 7 13 4 7 1016.9 - 0.0
24/08:00am 30.9 27.7 5.3 20 13.7 NNW 11 15 6 8 1017.0 - 0.0
24/07:30am 28.6 26.4 6.1 24 12.1 WNW 7 9 4 5 1017.0 - 0.0
24/07:00am 28.2 26.8 5.7 24 12.0 WSW 2 7 1 4 1016.7 - 0.0
24/06:30am 28.3 25.3 5.8 24 12.0 N 11 13 6 7 1016.2 - 0.0
24/06:00am 26.2 22.9 6.3 28 10.6 NNE 13 15 7 8 1015.9 1013.4 0.0
24/05:30am 23.4 21.0 5.3 31 9.3 N 7 9 4 5 1015.7 - 0.0
24/05:00am 23.5 22.0 4.9 30 9.5 NNE 2 7 1 4 1015.4 - 0.0
24/04:30am 24.0 22.6 5.4 30 9.6 SW 2 15 1 8 1015.3 - 0.0
24/04:00am 25.2 23.0 5.4 28 10.3 W 6 7 3 4 1014.9 - 0.0
24/03:30am 26.2 25.1 5.2 26 11.0 CALM 0 0 0 0 1014.8 - 0.0
24/03:00am 27.1 24.4 5.4 25 11.4 NE 9 11 5 6 1014.9 1012.4 0.0
24/02:30am 27.0 24.8 5.3 25 11.4 N 6 7 3 4 1014.9 - 0.0
24/02:00am 27.4 26.4 5.6 25 11.5 CALM 0 0 0 0 1014.7 - 0.0
24/01:30am 29.0 26.1 4.5 21 12.8 WSW 9 13 5 7 1014.8 - 0.0
24/01:00am 30.3 26.4 3.4 18 13.9 W 13 19 7 10 1014.9 - 0.0
24/12:30am 31.3 27.2 2.5 16 14.8 N 13 17 7 9 1014.6 - 0.0
24/12:00am 33.1 27.8 2.0 14 16.0 WNW 19 39 10 21 1014.7 1012.2 0.0
 
Date/Time
WST
Temp
°C
App
Temp
°C
Dew
Point
Rel
Hum
%
Delta-T
°C
Wind Press
QNH
hPa
Press
MSL
hPa
Rain
since 9 am
mm
Dir
 
Spd
km/h
Gust
km/h
Spd
kts
Gust
kts
23/11:30pm 32.3 28.1 1.4 14 15.7 NW 13 17 7 9 1015.0 - 0.0
23/11:00pm 33.5 26.4 1.3 13 16.4 WNW 28 39 15 21 1015.1 - 0.0
23/10:30pm 34.1 27.7 0.7 12 16.9 NW 24 35 13 19 1014.9 - 0.0
23/10:00pm 29.7 28.2 2.9 18 13.7 CALM 0 0 0 0 1015.2 - 0.0
23/09:30pm 31.8 28.8 2.0 15 15.2 NW 7 13 4 7 1015.5 - 0.0
23/09:00pm 33.2 28.9 1.1 13 16.3 NW 13 30 7 16 1015.7 1013.2 0.0
23/08:39pm 32.9 28.5 2.9 15 15.7 WNW 15 35 8 19 1016.0 - 0.0
23/08:30pm 33.3 24.8 3.2 15 15.8 NW 37 59 20 32 1016.4 - 0.0
23/08:24pm 33.7 24.3 2.5 14 16.2 NNW 41 59 22 32 1016.2 - 0.0
23/08:21pm 33.6 23.6 2.4 14 16.2 NNW 44 59 24 32 1016.2 - 0.0
23/08:02pm 33.8 26.0 1.6 13 16.5 W 32 56 17 30 1016.2 - 0.0
23/08:00pm 33.9 25.1 1.6 13 16.6 W 37 56 20 30 1016.3 - 0.0
23/07:59pm 33.9 24.8 1.6 13 16.6 W 39 56 21 30 1016.3 - 0.0
23/07:44pm 33.9 26.5 1.6 13 16.6 NW 30 69 16 37 1016.1 - 0.0
23/07:42pm 33.8 27.3 2.6 14 16.3 WNW 26 65 14 35 1016.1 - 0.0
23/07:41pm 33.8 24.1 2.6 14 16.3 WSW 43 65 23 35 1016.0 - 0.0
23/07:38pm 33.1 23.2 3.0 15 15.7 SW 44 63 24 34 1015.9 - 0.0
23/07:35pm 33.9 23.6 2.7 14 16.3 W 46 63 25 34 1016.1 - 0.0
23/07:32pm 33.8 26.0 1.6 13 16.5 NW 32 59 17 32 1015.9 - 0.0
23/07:30pm 32.1 26.8 3.1 16 15.1 NNW 20 32 11 17 1016.0 - 0.0
23/07:00pm 31.5 28.8 5.8 20 13.9 SW 9 15 5 8 1016.2 - 0.0
23/06:30pm 31.7 27.6 6.0 20 14.0 W 17 22 9 12 1016.0 - 0.0
23/06:00pm 31.5 28.2 6.5 21 13.7 WSW 13 24 7 13 1015.6 1013.1 0.0
23/05:30pm 31.6 28.3 6.6 21 13.8 WSW 13 19 7 10 1015.4 - 0.0
23/05:00pm 32.0 26.6 6.2 20 14.1 SW 24 33 13 18 1014.8 - 0.0
23/04:30pm 33.0 27.8 5.5 18 15.0 SW 22 30 12 16 1014.9 - 0.0
23/04:00pm 33.0 27.4 5.5 18 15.0 SSW 24 32 13 17 1014.4 - 0.0
23/03:30pm 33.0 27.6 4.7 17 15.2 SSW 22 30 12 16 1014.1 - 0.0
23/03:00pm 33.0 28.0 4.7 17 15.2 S 20 33 11 18 1014.2 1011.8 0.0
23/02:30pm 33.0 27.6 4.7 17 15.2 S 22 32 12 17 1014.4 - 0.0
23/02:00pm 33.6 28.5 4.3 16 15.7 S 20 28 11 15 1014.1 - 0.0
23/01:30pm 32.9 27.5 4.6 17 15.2 SSW 22 35 12 19 1014.1 - 0.0
23/01:00pm 33.5 28.0 4.2 16 15.7 SW 22 30 12 16 1014.0 - 0.0
23/12:30pm 33.3 27.4 4.1 16 15.6 SSW 24 37 13 20 1014.2 - 0.0
23/12:00pm 33.6 28.0 3.4 15 15.9 SW 22 30 12 16 1014.3 1011.9 0.0
23/11:30am 32.9 27.4 3.8 16 15.4 SW 22 33 12 18 1014.7 - 0.0
23/11:00am 32.0 26.5 3.9 17 14.8 SW 22 32 12 17 1014.6 - 0.0
23/10:30am 32.5 26.3 4.3 17 15.0 SW 26 41 14 22 1014.4 - 0.0
23/10:26am 32.2 25.6 4.1 17 14.9 SW 28 46 15 25 1014.4 - 0.0
23/10:00am 31.8 25.1 3.8 17 14.7 WSW 28 39 15 21 1014.2 - 0.0
23/09:30am 33.3 26.1 3.2 15 15.8 SW 30 41 16 22 1014.1 - 0.0
23/09:00am 36.0 28.4 -1.8 9 18.6 N 28 35 15 19 1013.5 1011.0 0.0
23/08:30am 35.1 27.3 -1.1 10 17.9 N 30 41 16 22 1013.5 - 0.0
23/08:00am 33.8 27.3 0.5 12 16.8 N 24 37 13 20 1013.5 - 0.0
23/07:30am 31.6 25.3 1.8 15 15.1 NNE 24 35 13 19 1013.7 - 0.0
23/07:00am 30.0 24.3 3.1 18 13.8 NNE 22 35 12 19 1013.6 - 0.0
23/06:30am 28.7 23.7 3.5 20 13.0 NE 19 30 10 16 1013.2 - 0.0
23/06:00am 28.2 23.6 3.8 21 12.6 ENE 17 32 9 17 1013.0 1010.5 0.0
23/05:30am 28.3 23.4 3.9 21 12.6 ENE 19 26 10 14 1012.8 - 0.0
23/05:00am 26.2 23.6 4.1 24 11.3 S 7 13 4 7 1012.8 - 0.0
23/04:30am 28.5 24.4 4.1 21 12.7 E 15 28 8 15 1012.7 - 0.0
23/04:00am 28.6 23.1 4.2 21 12.7 ENE 22 33 12 18 1012.3 - 0.0
23/03:30am 28.6 23.1 4.2 21 12.7 ENE 22 32 12 17 1012.4 - 0.0
23/03:00am 28.8 23.0 4.3 21 12.8 ENE 24 33 13 18 1012.3 1009.8 0.0
23/02:30am 28.8 22.6 4.3 21 12.8 ENE 26 33 14 18 1012.4 - 0.0
23/02:00am 28.5 22.6 4.1 21 12.7 E 24 35 13 19 1012.6 - 0.0
23/01:30am 28.4 22.9 4.0 21 12.6 E 22 28 12 15 1012.8 - 0.0
23/01:00am 28.6 23.5 4.2 21 12.7 E 20 28 11 15 1013.1 - 0.0
23/12:30am 28.8 23.4 4.3 21 12.8 ESE 22 32 12 17 1013.4 - 0.0
23/12:00am 29.3 24.2 4.0 20 13.2 E 20 28 11 15 1013.8 1011.3 0.0
 
Date/Time
WST
Temp
°C
App
Temp
°C
Dew
Point
Rel
Hum
%
Delta-T
°C
Wind Press
QNH
hPa
Press
MSL
hPa
Rain
since 9 am
mm
Dir
 
Spd
km/h
Gust
km/h
Spd
kts
Gust
kts
22/11:30pm 29.3 23.4 4.0 20 13.2 ESE 24 35 13 19 1014.1 - 0.0
22/11:00pm 29.5 24.4 4.2 20 13.2 ESE 20 28 11 15 1014.6 - 0.0
22/10:30pm 30.0 24.9 3.9 19 13.6 ESE 20 28 11 15 1014.9 - 0.0
22/10:00pm 30.7 26.1 3.7 18 14.1 ESE 17 28 9 15 1015.3 - 0.0
22/09:30pm 31.1 26.2 4.0 18 14.2 SE 19 26 10 14 1015.5 - 0.0
22/09:00pm 31.1 26.4 3.2 17 14.5 SE 17 20 9 11 1015.8 1013.3 0.0
22/08:30pm 31.0 27.4 3.1 17 14.4 SSE 11 15 6 8 1015.6 - 0.0
22/08:00pm 31.7 27.7 2.8 16 14.9 ESE 13 17 7 9 1015.4 - 0.0
22/07:30pm 32.6 28.2 2.6 15 15.5 ESE 15 19 8 10 1015.2 - 0.0
22/07:00pm 33.5 28.7 2.4 14 16.1 ESE 17 20 9 11 1015.2 - 0.0
22/06:30pm 34.2 29.5 2.9 14 16.5 ESE 17 26 9 14 1015.1 - 0.0
22/06:00pm 34.6 30.1 2.2 13 16.9 SE 15 20 8 11 1014.9 1012.4 0.0
22/05:30pm 35.5 30.8 2.9 13 17.3 SE 17 24 9 13 1014.6 - 0.0
22/05:00pm 36.1 31.6 2.2 12 17.8 SE 15 24 8 13 1014.3 - 0.0
22/04:30pm 36.8 31.5 2.8 12 18.1 SE 20 30 11 16 1014.3 - 0.0
22/04:00pm 37.0 31.9 2.9 12 18.2 SE 19 30 10 16 1014.3 - 0.0
22/03:30pm 37.0 32.6 2.9 12 18.2 S 15 22 8 12 1014.4 - 0.0
22/03:00pm 37.8 32.9 2.3 11 18.9 S 17 26 9 14 1014.7 1012.2 0.0
22/02:30pm 37.8 32.9 2.3 11 18.9 S 17 24 9 13 1014.9 - 0.0
22/02:00pm 38.2 32.5 2.6 11 19.0 E 22 28 12 15 1015.3 - 0.0
22/01:30pm 37.6 33.7 3.4 12 18.5 SE 13 24 7 13 1015.7 - 0.0
22/01:00pm 38.3 33.2 3.9 12 18.8 E 20 28 11 15 1016.1 - 0.0
22/12:30pm 37.0 32.8 4.0 13 17.9 ENE 15 32 8 17 1016.5 - 0.0
22/12:00pm 37.1 31.2 4.1 13 17.9 ESE 24 35 13 19 1017.1 1014.6 0.0
22/11:30am 36.3 30.2 4.6 14 17.3 E 26 37 14 20 1017.6 - 0.0

Other Formats:

Comma delimited format used in spreadsheet applications
http://www.bom.gov.au/fwo/IDW60801/IDW60801.94457.axf

JavaScript Object Notation format (JSON) in row-major order
http://www.bom.gov.au/fwo/IDW60801/IDW60801.94457.json